Terminal Aerodrome Forecast
Issued by NWS Amarillo, TX

Home | Current Version | Previous Version | Text Only | Print | Product List | Glossary On
Versions: 1 2 3 4 5 6 7 8 9 10 11 12 13
000
FTUS44 KAMA 231100
TAFDHT
TAF
KDHT 231121Z 2312/2412 21013KT P6SM SCT200
     FM231500 21018G28KT P6SM SCT090
     FM240100 20012KT P6SM SCT150=

USA.gov is the U.S. government's official web portal to all federal, state and local government web resources and services.